sensor_id;sensor_type;location;lat;lon;timestamp;P1;durP1;ratioP1;P2;durP2;ratioP2
7336;SDS011;54510;42.016;23.098;2022-09-03T00:00:36;17.63;;;9.00;;
7336;SDS011;54510;42.016;23.098;2022-09-03T00:03:24;14.40;;;9.18;;
7336;SDS011;54510;42.016;23.098;2022-09-03T00:08:29;13.65;;;8.63;;
7336;SDS011;54510;42.016;23.098;2022-09-03T00:13:53;12.82;;;8.18;;
7336;SDS011;54510;42.016;23.098;2022-09-03T00:16:25;14.32;;;8.73;;
7336;SDS011;54510;42.016;23.098;2022-09-03T00:18:59;9.07;;;7.45;;
7336;SDS011;54510;42.016;23.098;2022-09-03T00:24:02;14.45;;;8.35;;
7336;SDS011;54510;42.016;23.098;2022-09-03T00:26:32;10.43;;;8.23;;
7336;SDS011;54510;42.016;23.098;2022-09-03T00:30:00;13.93;;;8.55;;
7336;SDS011;54510;42.016;23.098;2022-09-03T00:31:57;13.63;;;8.30;;
7336;SDS011;54510;42.016;23.098;2022-09-03T00:37:03;10.20;;;7.70;;
7336;SDS011;54510;42.016;23.098;2022-09-03T00:39:29;9.45;;;6.95;;
7336;SDS011;54510;42.016;23.098;2022-09-03T00:44:52;10.88;;;7.78;;
7336;SDS011;54510;42.016;23.098;2022-09-03T00:50:20;17.42;;;8.30;;
7336;SDS011;54510;42.016;23.098;2022-09-03T01:00:37;10.27;;;7.50;;
7336;SDS011;54510;42.016;23.098;2022-09-03T01:05:54;9.85;;;6.97;;
7336;SDS011;54510;42.016;23.098;2022-09-03T01:08:49;14.07;;;7.63;;
7336;SDS011;54510;42.016;23.098;2022-09-03T01:11:29;12.63;;;8.00;;
7336;SDS011;54510;42.016;23.098;2022-09-03T01:25:20;11.32;;;8.00;;
7336;SDS011;54510;42.016;23.098;2022-09-03T01:30:37;14.85;;;8.38;;
7336;SDS011;54510;42.016;23.098;2022-09-03T01:41:24;20.05;;;8.52;;
7336;SDS011;54510;42.016;23.098;2022-09-03T01:50:33;13.15;;;7.85;;
7336;SDS011;54510;42.016;23.098;2022-09-03T01:59:21;16.23;;;8.63;;
7336;SDS011;54510;42.016;23.098;2022-09-03T02:01:52;15.68;;;8.35;;
7336;SDS011;54510;42.016;23.098;2022-09-03T02:04:25;13.45;;;8.38;;
7336;SDS011;54510;42.016;23.098;2022-09-03T02:06:53;15.43;;;7.82;;
7336;SDS011;54510;42.016;23.098;2022-09-03T02:09:22;16.50;;;7.63;;
7336;SDS011;54510;42.016;23.098;2022-09-03T02:11:52;14.00;;;8.13;;
7336;SDS011;54510;42.016;23.098;2022-09-03T02:14:24;12.55;;;7.78;;
7336;SDS011;54510;42.016;23.098;2022-09-03T02:16:51;12.90;;;9.30;;
7336;SDS011;54510;42.016;23.098;2022-09-03T02:19:18;15.98;;;8.95;;
7336;SDS011;54510;42.016;23.098;2022-09-03T02:21:49;17.42;;;9.27;;
7336;SDS011;54510;42.016;23.098;2022-09-03T02:24:17;13.75;;;8.73;;
7336;SDS011;54510;42.016;23.098;2022-09-03T02:26:43;15.43;;;8.40;;
7336;SDS011;54510;42.016;23.098;2022-09-03T02:29:09;12.85;;;8.02;;
7336;SDS011;54510;42.016;23.098;2022-09-03T02:31:35;18.40;;;8.70;;
7336;SDS011;54510;42.016;23.098;2022-09-03T02:34:01;15.43;;;8.15;;
7336;SDS011;54510;42.016;23.098;2022-09-03T02:36:34;17.35;;;8.73;;
7336;SDS011;54510;42.016;23.098;2022-09-03T02:39:03;19.45;;;9.43;;
7336;SDS011;54510;42.016;23.098;2022-09-03T02:41:29;20.08;;;8.50;;
7336;SDS011;54510;42.016;23.098;2022-09-03T02:46:32;19.65;;;7.88;;
7336;SDS011;54510;42.016;23.098;2022-09-03T02:49:02;16.33;;;8.13;;
7336;SDS011;54510;42.016;23.098;2022-09-03T02:51:31;16.08;;;7.82;;
7336;SDS011;54510;42.016;23.098;2022-09-03T02:53:57;18.27;;;8.93;;
7336;SDS011;54510;42.016;23.098;2022-09-03T02:56:23;19.15;;;8.85;;
7336;SDS011;54510;42.016;23.098;2022-09-03T02:58:52;18.77;;;9.02;;
7336;SDS011;54510;42.016;23.098;2022-09-03T03:01:17;20.52;;;8.38;;
7336;SDS011;54510;42.016;23.098;2022-09-03T03:03:43;15.23;;;8.43;;
7336;SDS011;54510;42.016;23.098;2022-09-03T03:06:08;17.77;;;8.70;;
7336;SDS011;54510;42.016;23.098;2022-09-03T03:08:34;18.60;;;9.10;;
7336;SDS011;54510;42.016;23.098;2022-09-03T03:11:00;16.02;;;9.00;;
7336;SDS011;54510;42.016;23.098;2022-09-03T03:13:26;16.75;;;9.05;;
7336;SDS011;54510;42.016;23.098;2022-09-03T03:16:03;14.90;;;8.50;;
7336;SDS011;54510;42.016;23.098;2022-09-03T03:18:30;17.17;;;9.23;;
7336;SDS011;54510;42.016;23.098;2022-09-03T03:20:56;17.92;;;8.95;;
7336;SDS011;54510;42.016;23.098;2022-09-03T03:23:22;18.00;;;8.75;;
7336;SDS011;54510;42.016;23.098;2022-09-03T03:25:48;16.35;;;9.15;;
7336;SDS011;54510;42.016;23.098;2022-09-03T03:28:13;14.77;;;7.82;;
7336;SDS011;54510;42.016;23.098;2022-09-03T03:30:39;14.88;;;8.07;;
7336;SDS011;54510;42.016;23.098;2022-09-03T03:33:06;12.48;;;8.40;;
7336;SDS011;54510;42.016;23.098;2022-09-03T03:35:32;20.27;;;9.25;;
7336;SDS011;54510;42.016;23.098;2022-09-03T03:37:58;21.08;;;8.63;;
7336;SDS011;54510;42.016;23.098;2022-09-03T03:40:24;17.05;;;7.82;;
7336;SDS011;54510;42.016;23.098;2022-09-03T03:42:50;16.20;;;8.50;;
7336;SDS011;54510;42.016;23.098;2022-09-03T03:45:15;18.83;;;7.63;;
7336;SDS011;54510;42.016;23.098;2022-09-03T03:47:41;15.95;;;8.35;;
7336;SDS011;54510;42.016;23.098;2022-09-03T03:50:07;19.88;;;9.25;;
7336;SDS011;54510;42.016;23.098;2022-09-03T03:52:32;19.30;;;9.07;;
7336;SDS011;54510;42.016;23.098;2022-09-03T03:54:58;18.75;;;8.25;;
7336;SDS011;54510;42.016;23.098;2022-09-03T03:57:23;13.48;;;7.82;;
7336;SDS011;54510;42.016;23.098;2022-09-03T03:59:49;14.68;;;8.50;;
7336;SDS011;54510;42.016;23.098;2022-09-03T04:02:17;20.30;;;8.75;;
7336;SDS011;54510;42.016;23.098;2022-09-03T04:04:42;15.90;;;8.55;;
7336;SDS011;54510;42.016;23.098;2022-09-03T04:07:08;16.40;;;8.27;;
7336;SDS011;54510;42.016;23.098;2022-09-03T04:09:34;16.55;;;8.20;;
7336;SDS011;54510;42.016;23.098;2022-09-03T04:12:00;15.48;;;8.15;;
7336;SDS011;54510;42.016;23.098;2022-09-03T04:14:26;15.48;;;8.38;;
7336;SDS011;54510;42.016;23.098;2022-09-03T04:16:52;16.92;;;8.23;;
7336;SDS011;54510;42.016;23.098;2022-09-03T04:19:18;16.17;;;7.85;;
7336;SDS011;54510;42.016;23.098;2022-09-03T04:21:45;20.60;;;9.13;;
7336;SDS011;54510;42.016;23.098;2022-09-03T04:24:10;18.65;;;8.40;;
7336;SDS011;54510;42.016;23.098;2022-09-03T04:26:36;10.75;;;7.60;;
7336;SDS011;54510;42.016;23.098;2022-09-03T04:29:03;13.15;;;6.93;;
7336;SDS011;54510;42.016;23.098;2022-09-03T04:31:30;10.35;;;7.28;;
7336;SDS011;54510;42.016;23.098;2022-09-03T04:33:57;18.85;;;7.30;;
7336;SDS011;54510;42.016;23.098;2022-09-03T04:36:23;14.68;;;7.95;;
7336;SDS011;54510;42.016;23.098;2022-09-03T04:38:51;12.10;;;7.85;;
7336;SDS011;54510;42.016;23.098;2022-09-03T04:41:28;13.27;;;7.65;;
7336;SDS011;54510;42.016;23.098;2022-09-03T04:43:55;12.25;;;7.00;;
7336;SDS011;54510;42.016;23.098;2022-09-03T04:46:23;15.77;;;7.95;;
7336;SDS011;54510;42.016;23.098;2022-09-03T04:48:51;11.65;;;7.38;;
7336;SDS011;54510;42.016;23.098;2022-09-03T04:51:22;8.55;;;6.28;;
7336;SDS011;54510;42.016;23.098;2022-09-03T04:53:55;8.68;;;6.65;;
7336;SDS011;54510;42.016;23.098;2022-09-03T04:56:22;13.85;;;6.80;;
7336;SDS011;54510;42.016;23.098;2022-09-03T04:58:53;12.85;;;6.35;;
7336;SDS011;54510;42.016;23.098;2022-09-03T05:01:21;10.80;;;6.40;;
7336;SDS011;54510;42.016;23.098;2022-09-03T05:03:47;10.55;;;6.97;;
7336;SDS011;54510;42.016;23.098;2022-09-03T05:06:16;10.95;;;6.10;;
7336;SDS011;54510;42.016;23.098;2022-09-03T05:08:43;10.40;;;5.35;;
7336;SDS011;54510;42.016;23.098;2022-09-03T05:11:12;8.57;;;5.93;;
7336;SDS011;54510;42.016;23.098;2022-09-03T05:13:38;9.63;;;6.40;;
7336;SDS011;54510;42.016;23.098;2022-09-03T05:16:05;13.50;;;5.75;;
7336;SDS011;54510;42.016;23.098;2022-09-03T05:18:32;13.15;;;6.10;;
7336;SDS011;54510;42.016;23.098;2022-09-03T05:21:02;10.60;;;6.22;;
7336;SDS011;54510;42.016;23.098;2022-09-03T05:23:30;11.02;;;6.07;;
7336;SDS011;54510;42.016;23.098;2022-09-03T05:26:00;8.60;;;5.38;;
7336;SDS011;54510;42.016;23.098;2022-09-03T05:28:28;8.20;;;5.85;;
7336;SDS011;54510;42.016;23.098;2022-09-03T05:31:01;9.13;;;5.78;;
7336;SDS011;54510;42.016;23.098;2022-09-03T05:33:27;10.55;;;5.82;;
7336;SDS011;54510;42.016;23.098;2022-09-03T05:36:00;11.07;;;5.57;;
7336;SDS011;54510;42.016;23.098;2022-09-03T05:38:26;8.43;;;5.25;;
7336;SDS011;54510;42.016;23.098;2022-09-03T05:40:52;11.15;;;6.43;;
7336;SDS011;54510;42.016;23.098;2022-09-03T05:43:17;11.95;;;6.18;;
7336;SDS011;54510;42.016;23.098;2022-09-03T05:45:43;9.55;;;6.22;;
7336;SDS011;54510;42.016;23.098;2022-09-03T05:48:08;9.52;;;5.60;;
7336;SDS011;54510;42.016;23.098;2022-09-03T05:50:33;11.07;;;6.05;;
7336;SDS011;54510;42.016;23.098;2022-09-03T05:52:59;12.07;;;6.60;;
7336;SDS011;54510;42.016;23.098;2022-09-03T05:55:24;11.18;;;6.35;;
7336;SDS011;54510;42.016;23.098;2022-09-03T05:57:52;8.45;;;5.80;;
7336;SDS011;54510;42.016;23.098;2022-09-03T06:00:18;9.65;;;5.45;;
7336;SDS011;54510;42.016;23.098;2022-09-03T06:02:49;7.70;;;5.47;;
7336;SDS011;54510;42.016;23.098;2022-09-03T06:05:18;12.70;;;4.70;;
7336;SDS011;54510;42.016;23.098;2022-09-03T06:07:44;7.32;;;4.65;;
7336;SDS011;54510;42.016;23.098;2022-09-03T06:10:14;8.55;;;5.38;;
7336;SDS011;54510;42.016;23.098;2022-09-03T06:12:40;6.97;;;4.90;;
7336;SDS011;54510;42.016;23.098;2022-09-03T06:15:06;8.18;;;5.65;;
7336;SDS011;54510;42.016;23.098;2022-09-03T06:17:32;12.77;;;6.43;;
7336;SDS011;54510;42.016;23.098;2022-09-03T06:19:58;7.75;;;4.80;;
7336;SDS011;54510;42.016;23.098;2022-09-03T06:22:23;10.68;;;6.07;;
7336;SDS011;54510;42.016;23.098;2022-09-03T06:24:52;6.88;;;4.93;;
7336;SDS011;54510;42.016;23.098;2022-09-03T06:27:18;9.45;;;4.47;;
7336;SDS011;54510;42.016;23.098;2022-09-03T06:29:45;10.38;;;5.20;;
7336;SDS011;54510;42.016;23.098;2022-09-03T06:32:10;8.95;;;5.05;;
7336;SDS011;54510;42.016;23.098;2022-09-03T06:34:36;7.07;;;4.55;;
7336;SDS011;54510;42.016;23.098;2022-09-03T06:37:01;6.47;;;5.10;;
7336;SDS011;54510;42.016;23.098;2022-09-03T06:39:27;6.82;;;4.65;;
7336;SDS011;54510;42.016;23.098;2022-09-03T06:41:52;9.48;;;5.10;;
7336;SDS011;54510;42.016;23.098;2022-09-03T06:44:19;6.85;;;5.07;;
7336;SDS011;54510;42.016;23.098;2022-09-03T06:46:44;8.02;;;4.82;;
7336;SDS011;54510;42.016;23.098;2022-09-03T06:49:12;6.45;;;5.35;;
7336;SDS011;54510;42.016;23.098;2022-09-03T06:51:38;7.45;;;4.95;;
7336;SDS011;54510;42.016;23.098;2022-09-03T06:54:05;6.60;;;5.13;;
7336;SDS011;54510;42.016;23.098;2022-09-03T06:56:32;7.75;;;5.20;;
7336;SDS011;54510;42.016;23.098;2022-09-03T06:59:02;6.75;;;5.53;;
7336;SDS011;54510;42.016;23.098;2022-09-03T07:01:30;10.50;;;5.97;;
7336;SDS011;54510;42.016;23.098;2022-09-03T07:03:56;8.75;;;6.10;;
7336;SDS011;54510;42.016;23.098;2022-09-03T07:06:25;7.57;;;5.30;;
7336;SDS011;54510;42.016;23.098;2022-09-03T07:08:52;7.35;;;4.82;;
7336;SDS011;54510;42.016;23.098;2022-09-03T07:11:19;7.00;;;4.28;;
7336;SDS011;54510;42.016;23.098;2022-09-03T07:13:50;7.57;;;4.55;;
7336;SDS011;54510;42.016;23.098;2022-09-03T07:16:18;5.32;;;3.70;;
7336;SDS011;54510;42.016;23.098;2022-09-03T07:18:45;5.68;;;3.85;;
7336;SDS011;54510;42.016;23.098;2022-09-03T07:21:12;4.90;;;3.70;;
7336;SDS011;54510;42.016;23.098;2022-09-03T07:23:40;6.30;;;3.65;;
7336;SDS011;54510;42.016;23.098;2022-09-03T07:26:07;5.63;;;4.15;;
7336;SDS011;54510;42.016;23.098;2022-09-03T07:28:36;9.88;;;5.03;;
7336;SDS011;54510;42.016;23.098;2022-09-03T07:31:04;9.77;;;4.45;;
7336;SDS011;54510;42.016;23.098;2022-09-03T07:33:30;8.05;;;4.28;;
7336;SDS011;54510;42.016;23.098;2022-09-03T07:36:01;7.90;;;3.75;;
7336;SDS011;54510;42.016;23.098;2022-09-03T07:38:31;7.50;;;3.60;;
7336;SDS011;54510;42.016;23.098;2022-09-03T07:40:58;23.92;;;5.38;;
7336;SDS011;54510;42.016;23.098;2022-09-03T07:43:26;5.75;;;3.75;;
7336;SDS011;54510;42.016;23.098;2022-09-03T07:48:23;7.45;;;4.22;;
7336;SDS011;54510;42.016;23.098;2022-09-03T07:50:48;10.60;;;4.65;;
7336;SDS011;54510;42.016;23.098;2022-09-03T07:53:17;8.63;;;3.45;;
7336;SDS011;54510;42.016;23.098;2022-09-03T07:55:44;8.23;;;4.32;;
7336;SDS011;54510;42.016;23.098;2022-09-03T07:58:11;8.60;;;3.95;;
7336;SDS011;54510;42.016;23.098;2022-09-03T08:00:38;7.13;;;4.28;;
7336;SDS011;54510;42.016;23.098;2022-09-03T08:03:03;8.95;;;4.20;;
7336;SDS011;54510;42.016;23.098;2022-09-03T08:05:32;9.38;;;4.50;;
7336;SDS011;54510;42.016;23.098;2022-09-03T08:07:59;14.63;;;4.82;;
7336;SDS011;54510;42.016;23.098;2022-09-03T08:10:25;17.10;;;5.20;;
7336;SDS011;54510;42.016;23.098;2022-09-03T08:12:54;11.85;;;4.85;;
7336;SDS011;54510;42.016;23.098;2022-09-03T08:15:20;11.55;;;4.60;;
7336;SDS011;54510;42.016;23.098;2022-09-03T08:17:45;12.82;;;5.28;;
7336;SDS011;54510;42.016;23.098;2022-09-03T08:20:11;10.75;;;4.95;;
7336;SDS011;54510;42.016;23.098;2022-09-03T08:22:36;10.45;;;4.65;;
7336;SDS011;54510;42.016;23.098;2022-09-03T08:25:02;10.50;;;4.78;;
7336;SDS011;54510;42.016;23.098;2022-09-03T08:27:28;9.68;;;4.30;;
7336;SDS011;54510;42.016;23.098;2022-09-03T08:29:54;11.27;;;4.70;;
7336;SDS011;54510;42.016;23.098;2022-09-03T08:32:19;9.60;;;5.68;;
7336;SDS011;54510;42.016;23.098;2022-09-03T08:34:45;16.30;;;5.43;;
7336;SDS011;54510;42.016;23.098;2022-09-03T08:37:11;10.38;;;5.10;;
7336;SDS011;54510;42.016;23.098;2022-09-03T08:39:37;11.60;;;4.50;;
7336;SDS011;54510;42.016;23.098;2022-09-03T08:42:24;7.55;;;4.30;;
7336;SDS011;54510;42.016;23.098;2022-09-03T08:45:11;9.75;;;4.82;;
7336;SDS011;54510;42.016;23.098;2022-09-03T08:47:43;47.70;;;7.90;;
7336;SDS011;54510;42.016;23.098;2022-09-03T08:52:53;8.18;;;4.97;;
7336;SDS011;54510;42.016;23.098;2022-09-03T08:55:25;24.40;;;5.70;;
7336;SDS011;54510;42.016;23.098;2022-09-03T08:58:05;9.95;;;4.82;;
7336;SDS011;54510;42.016;23.098;2022-09-03T09:03:26;6.85;;;5.22;;
7336;SDS011;54510;42.016;23.098;2022-09-03T09:06:10;6.60;;;4.90;;
7336;SDS011;54510;42.016;23.098;2022-09-03T09:09:01;8.38;;;5.57;;
7336;SDS011;54510;42.016;23.098;2022-09-03T09:11:58;8.63;;;4.93;;
7336;SDS011;54510;42.016;23.098;2022-09-03T09:20:13;9.77;;;4.72;;
7336;SDS011;54510;42.016;23.098;2022-09-03T09:22:50;9.85;;;5.72;;
7336;SDS011;54510;42.016;23.098;2022-09-03T09:25:21;8.43;;;4.47;;
7336;SDS011;54510;42.016;23.098;2022-09-03T09:27:53;10.20;;;4.85;;
7336;SDS011;54510;42.016;23.098;2022-09-03T09:30:23;12.75;;;5.43;;
7336;SDS011;54510;42.016;23.098;2022-09-03T09:32:49;6.95;;;4.20;;
7336;SDS011;54510;42.016;23.098;2022-09-03T09:35:16;18.45;;;4.95;;
7336;SDS011;54510;42.016;23.098;2022-09-03T09:38:01;9.63;;;4.78;;
7336;SDS011;54510;42.016;23.098;2022-09-03T09:43:03;11.20;;;4.72;;
7336;SDS011;54510;42.016;23.098;2022-09-03T09:45:35;7.15;;;4.18;;
7336;SDS011;54510;42.016;23.098;2022-09-03T09:48:20;7.07;;;3.67;;
7336;SDS011;54510;42.016;23.098;2022-09-03T09:53:35;10.88;;;4.20;;
7336;SDS011;54510;42.016;23.098;2022-09-03T09:56:01;10.68;;;4.00;;
7336;SDS011;54510;42.016;23.098;2022-09-03T09:58:27;12.75;;;5.00;;
7336;SDS011;54510;42.016;23.098;2022-09-03T10:03:29;9.57;;;4.65;;
7336;SDS011;54510;42.016;23.098;2022-09-03T10:06:01;8.63;;;5.03;;
7336;SDS011;54510;42.016;23.098;2022-09-03T10:08:50;10.65;;;4.03;;
7336;SDS011;54510;42.016;23.098;2022-09-03T10:11:18;8.20;;;4.22;;
7336;SDS011;54510;42.016;23.098;2022-09-03T10:13:49;6.35;;;3.67;;
7336;SDS011;54510;42.016;23.098;2022-09-03T10:16:28;14.23;;;5.35;;
7336;SDS011;54510;42.016;23.098;2022-09-03T10:19:12;5.75;;;3.67;;
7336;SDS011;54510;42.016;23.098;2022-09-03T10:27:04;6.53;;;3.17;;
7336;SDS011;54510;42.016;23.098;2022-09-03T10:29:33;6.13;;;3.85;;
7336;SDS011;54510;42.016;23.098;2022-09-03T10:32:16;6.20;;;4.35;;
7336;SDS011;54510;42.016;23.098;2022-09-03T10:34:58;6.60;;;4.30;;
7336;SDS011;54510;42.016;23.098;2022-09-03T10:37:38;5.50;;;3.40;;
7336;SDS011;54510;42.016;23.098;2022-09-03T10:51:50;5.88;;;3.20;;
7336;SDS011;54510;42.016;23.098;2022-09-03T11:00:13;6.57;;;3.15;;
7336;SDS011;54510;42.016;23.098;2022-09-03T11:05:36;5.82;;;3.38;;
7336;SDS011;54510;42.016;23.098;2022-09-03T11:10:54;5.78;;;3.58;;
7336;SDS011;54510;42.016;23.098;2022-09-03T11:13:29;6.03;;;3.58;;
7336;SDS011;54510;42.016;23.098;2022-09-03T11:16:14;4.28;;;3.10;;
7336;SDS011;54510;42.016;23.098;2022-09-03T11:18:48;5.53;;;3.05;;
7336;SDS011;54510;42.016;23.098;2022-09-03T11:21:19;8.63;;;3.55;;
7336;SDS011;54510;42.016;23.098;2022-09-03T11:23:50;7.28;;;3.80;;
7336;SDS011;54510;42.016;23.098;2022-09-03T11:26:22;10.40;;;3.72;;
7336;SDS011;54510;42.016;23.098;2022-09-03T11:28:56;4.93;;;3.17;;
7336;SDS011;54510;42.016;23.098;2022-09-03T11:31:32;6.40;;;3.65;;
7336;SDS011;54510;42.016;23.098;2022-09-03T11:36:50;6.03;;;2.70;;
7336;SDS011;54510;42.016;23.098;2022-09-03T11:42:01;4.30;;;3.00;;
7336;SDS011;54510;42.016;23.098;2022-09-03T11:44:38;3.90;;;2.30;;
7336;SDS011;54510;42.016;23.098;2022-09-03T11:47:23;4.43;;;2.75;;
7336;SDS011;54510;42.016;23.098;2022-09-03T11:50:06;4.53;;;2.38;;
7336;SDS011;54510;42.016;23.098;2022-09-03T11:52:45;10.00;;;3.17;;
7336;SDS011;54510;42.016;23.098;2022-09-03T11:55:22;6.35;;;2.80;;
7336;SDS011;54510;42.016;23.098;2022-09-03T11:58:09;6.30;;;3.38;;
7336;SDS011;54510;42.016;23.098;2022-09-03T12:00:38;7.07;;;3.70;;
7336;SDS011;54510;42.016;23.098;2022-09-03T12:03:11;4.53;;;2.42;;
7336;SDS011;54510;42.016;23.098;2022-09-03T12:22:15;3.72;;;2.92;;
7336;SDS011;54510;42.016;23.098;2022-09-03T12:24:42;3.65;;;2.60;;
7336;SDS011;54510;42.016;23.098;2022-09-03T12:27:12;3.78;;;2.15;;
7336;SDS011;54510;42.016;23.098;2022-09-03T12:32:34;7.70;;;2.70;;
7336;SDS011;54510;42.016;23.098;2022-09-03T12:37:58;4.00;;;2.80;;
7336;SDS011;54510;42.016;23.098;2022-09-03T12:40:25;4.72;;;2.80;;
7336;SDS011;54510;42.016;23.098;2022-09-03T12:42:53;5.40;;;2.25;;
7336;SDS011;54510;42.016;23.098;2022-09-03T12:45:20;6.07;;;2.50;;
7336;SDS011;54510;42.016;23.098;2022-09-03T12:47:47;5.28;;;2.33;;
7336;SDS011;54510;42.016;23.098;2022-09-03T12:50:14;5.47;;;3.30;;
7336;SDS011;54510;42.016;23.098;2022-09-03T13:00:44;5.07;;;2.60;;
7336;SDS011;54510;42.016;23.098;2022-09-03T13:03:21;5.53;;;2.50;;
7336;SDS011;54510;42.016;23.098;2022-09-03T13:05:58;3.47;;;2.53;;
7336;SDS011;54510;42.016;23.098;2022-09-03T13:08:39;4.28;;;2.70;;
7336;SDS011;54510;42.016;23.098;2022-09-03T13:11:09;4.85;;;2.35;;
7336;SDS011;54510;42.016;23.098;2022-09-03T13:13:47;5.75;;;2.67;;
7336;SDS011;54510;42.016;23.098;2022-09-03T13:19:21;5.03;;;2.67;;
7336;SDS011;54510;42.016;23.098;2022-09-03T13:33:47;3.35;;;2.10;;
7336;SDS011;54510;42.016;23.098;2022-09-03T13:36:15;3.90;;;1.98;;
7336;SDS011;54510;42.016;23.098;2022-09-03T13:38:51;4.63;;;2.00;;
7336;SDS011;54510;42.016;23.098;2022-09-03T13:47:20;4.68;;;2.22;;
7336;SDS011;54510;42.016;23.098;2022-09-03T13:49:51;4.97;;;2.38;;
7336;SDS011;54510;42.016;23.098;2022-09-03T13:52:46;6.13;;;2.50;;
7336;SDS011;54510;42.016;23.098;2022-09-03T14:00:22;3.75;;;2.03;;
7336;SDS011;54510;42.016;23.098;2022-09-03T14:03:24;4.30;;;2.08;;
7336;SDS011;54510;42.016;23.098;2022-09-03T14:17:05;5.25;;;2.22;;
7336;SDS011;54510;42.016;23.098;2022-09-03T14:22:20;4.18;;;2.78;;
7336;SDS011;54510;42.016;23.098;2022-09-03T14:27:24;6.68;;;2.28;;
7336;SDS011;54510;42.016;23.098;2022-09-03T14:29:53;3.95;;;2.50;;
7336;SDS011;54510;42.016;23.098;2022-09-03T14:38:10;7.50;;;2.40;;
7336;SDS011;54510;42.016;23.098;2022-09-03T14:40:51;5.07;;;2.38;;
7336;SDS011;54510;42.016;23.098;2022-09-03T14:54:48;3.55;;;2.17;;
7336;SDS011;54510;42.016;23.098;2022-09-03T15:05:34;3.55;;;1.90;;
7336;SDS011;54510;42.016;23.098;2022-09-03T15:08:15;2.72;;;1.90;;
7336;SDS011;54510;42.016;23.098;2022-09-03T15:11:03;3.45;;;2.20;;
7336;SDS011;54510;42.016;23.098;2022-09-03T15:13:44;5.50;;;2.22;;
7336;SDS011;54510;42.016;23.098;2022-09-03T15:16:18;3.50;;;2.15;;
7336;SDS011;54510;42.016;23.098;2022-09-03T15:35:41;4.88;;;2.30;;
7336;SDS011;54510;42.016;23.098;2022-09-03T15:40:56;4.88;;;2.78;;
7336;SDS011;54510;42.016;23.098;2022-09-03T15:43:30;5.32;;;3.13;;
7336;SDS011;54510;42.016;23.098;2022-09-03T15:48:29;7.50;;;3.78;;
7336;SDS011;54510;42.016;23.098;2022-09-03T15:53:57;8.13;;;3.22;;
7336;SDS011;54510;42.016;23.098;2022-09-03T15:59:00;6.13;;;3.08;;
7336;SDS011;54510;42.016;23.098;2022-09-03T16:01:42;4.40;;;2.70;;
7336;SDS011;54510;42.016;23.098;2022-09-03T16:15:03;6.53;;;3.08;;
7336;SDS011;54510;42.016;23.098;2022-09-03T16:20:35;5.82;;;3.70;;
7336;SDS011;54510;42.016;23.098;2022-09-03T16:23:50;6.80;;;3.13;;
7336;SDS011;54510;42.016;23.098;2022-09-03T16:26:15;8.95;;;3.75;;
7336;SDS011;54510;42.016;23.098;2022-09-03T16:28:47;9.27;;;3.58;;
7336;SDS011;54510;42.016;23.098;2022-09-03T16:34:06;7.63;;;3.33;;
7336;SDS011;54510;42.016;23.098;2022-09-03T16:36:47;9.25;;;3.22;;
7336;SDS011;54510;42.016;23.098;2022-09-03T16:39:39;6.75;;;3.72;;
7336;SDS011;54510;42.016;23.098;2022-09-03T16:42:52;14.25;;;4.32;;
7336;SDS011;54510;42.016;23.098;2022-09-03T16:51:11;53.55;;;23.08;;
7336;SDS011;54510;42.016;23.098;2022-09-03T16:57:01;116.78;;;52.88;;
7336;SDS011;54510;42.016;23.098;2022-09-03T17:05:37;87.97;;;44.13;;
7336;SDS011;54510;42.016;23.098;2022-09-03T17:16:14;8.73;;;5.18;;
7336;SDS011;54510;42.016;23.098;2022-09-03T17:23:59;8.90;;;3.72;;
7336;SDS011;54510;42.016;23.098;2022-09-03T17:26:33;6.03;;;3.30;;
7336;SDS011;54510;42.016;23.098;2022-09-03T17:32:08;6.00;;;3.63;;
7336;SDS011;54510;42.016;23.098;2022-09-03T17:43:44;5.80;;;3.78;;
7336;SDS011;54510;42.016;23.098;2022-09-03T17:49:31;8.38;;;3.65;;
7336;SDS011;54510;42.016;23.098;2022-09-03T17:52:07;9.82;;;6.95;;
7336;SDS011;54510;42.016;23.098;2022-09-03T17:54:46;6.30;;;4.65;;
7336;SDS011;54510;42.016;23.098;2022-09-03T17:57:26;11.70;;;4.22;;
7336;SDS011;54510;42.016;23.098;2022-09-03T18:05:02;8.95;;;4.68;;
7336;SDS011;54510;42.016;23.098;2022-09-03T18:10:09;7.22;;;4.68;;
7336;SDS011;54510;42.016;23.098;2022-09-03T18:12:51;8.13;;;4.88;;
7336;SDS011;54510;42.016;23.098;2022-09-03T18:15:36;8.38;;;5.97;;
7336;SDS011;54510;42.016;23.098;2022-09-03T18:18:19;9.02;;;4.90;;
7336;SDS011;54510;42.016;23.098;2022-09-03T18:20:51;11.20;;;4.85;;
7336;SDS011;54510;42.016;23.098;2022-09-03T18:23:53;8.57;;;5.43;;
7336;SDS011;54510;42.016;23.098;2022-09-03T18:26:51;9.02;;;4.55;;
7336;SDS011;54510;42.016;23.098;2022-09-03T18:29:48;7.68;;;5.30;;
7336;SDS011;54510;42.016;23.098;2022-09-03T18:32:38;13.32;;;4.90;;
7336;SDS011;54510;42.016;23.098;2022-09-03T18:35:23;7.90;;;5.28;;
7336;SDS011;54510;42.016;23.098;2022-09-03T18:38:08;8.48;;;4.88;;
7336;SDS011;54510;42.016;23.098;2022-09-03T18:40:58;7.05;;;4.50;;
7336;SDS011;54510;42.016;23.098;2022-09-03T18:43:55;6.93;;;4.78;;
7336;SDS011;54510;42.016;23.098;2022-09-03T18:46:49;7.40;;;5.03;;
7336;SDS011;54510;42.016;23.098;2022-09-03T18:58:50;10.45;;;5.38;;
7336;SDS011;54510;42.016;23.098;2022-09-03T19:01:56;7.43;;;5.28;;
7336;SDS011;54510;42.016;23.098;2022-09-03T19:11:09;6.55;;;4.75;;
7336;SDS011;54510;42.016;23.098;2022-09-03T19:14:14;7.28;;;5.18;;
7336;SDS011;54510;42.016;23.098;2022-09-03T19:17:16;10.38;;;6.72;;
7336;SDS011;54510;42.016;23.098;2022-09-03T19:23:04;10.13;;;7.15;;
7336;SDS011;54510;42.016;23.098;2022-09-03T19:25:48;9.50;;;6.28;;
7336;SDS011;54510;42.016;23.098;2022-09-03T19:28:39;9.63;;;5.78;;
7336;SDS011;54510;42.016;23.098;2022-09-03T19:31:48;9.80;;;5.63;;
7336;SDS011;54510;42.016;23.098;2022-09-03T19:34:44;7.65;;;5.07;;
7336;SDS011;54510;42.016;23.098;2022-09-03T19:37:40;8.00;;;5.55;;
7336;SDS011;54510;42.016;23.098;2022-09-03T19:46:42;6.87;;;4.73;;
7336;SDS011;54510;42.016;23.098;2022-09-03T19:49:44;12.70;;;5.68;;
7336;SDS011;54510;42.016;23.098;2022-09-03T19:52:47;10.90;;;5.15;;
7336;SDS011;54510;42.016;23.098;2022-09-03T19:55:38;7.28;;;5.78;;
7336;SDS011;54510;42.016;23.098;2022-09-03T19:58:26;9.10;;;5.45;;
7336;SDS011;54510;42.016;23.098;2022-09-03T20:01:12;11.52;;;6.05;;
7336;SDS011;54510;42.016;23.098;2022-09-03T20:04:03;9.73;;;6.22;;
7336;SDS011;54510;42.016;23.098;2022-09-03T20:06:54;10.10;;;5.60;;
7336;SDS011;54510;42.016;23.098;2022-09-03T20:09:40;8.50;;;4.93;;
7336;SDS011;54510;42.016;23.098;2022-09-03T20:12:26;7.50;;;5.13;;
7336;SDS011;54510;42.016;23.098;2022-09-03T20:15:00;8.68;;;5.18;;
7336;SDS011;54510;42.016;23.098;2022-09-03T20:17:37;7.85;;;5.63;;
7336;SDS011;54510;42.016;23.098;2022-09-03T20:29:23;7.35;;;4.80;;
7336;SDS011;54510;42.016;23.098;2022-09-03T20:32:30;9.18;;;5.40;;
7336;SDS011;54510;42.016;23.098;2022-09-03T20:35:09;8.77;;;4.97;;
7336;SDS011;54510;42.016;23.098;2022-09-03T20:43:40;8.10;;;4.90;;
7336;SDS011;54510;42.016;23.098;2022-09-03T20:51:39;8.60;;;5.07;;
7336;SDS011;54510;42.016;23.098;2022-09-03T20:54:18;7.05;;;5.25;;
7336;SDS011;54510;42.016;23.098;2022-09-03T21:10:22;7.97;;;5.57;;
7336;SDS011;54510;42.016;23.098;2022-09-03T21:16:08;11.57;;;6.05;;
7336;SDS011;54510;42.016;23.098;2022-09-03T21:21:42;10.05;;;5.65;;
7336;SDS011;54510;42.016;23.098;2022-09-03T21:27:00;7.80;;;5.85;;
7336;SDS011;54510;42.016;23.098;2022-09-03T21:29:31;10.85;;;5.75;;
7336;SDS011;54510;42.016;23.098;2022-09-03T21:32:16;7.60;;;5.13;;
7336;SDS011;54510;42.016;23.098;2022-09-03T21:37:27;8.63;;;5.72;;
7336;SDS011;54510;42.016;23.098;2022-09-03T21:39:58;8.85;;;5.75;;